sensor_id;sensor_type;location;lat;lon;timestamp;P1;durP1;ratioP1;P2;durP2;ratioP2
24547;SDS011;12713;51.624;4.924;2022-10-16T00:01:17;9.65;;;3.67;;
24547;SDS011;12713;51.624;4.924;2022-10-16T00:03:43;9.73;;;3.97;;
24547;SDS011;12713;51.624;4.924;2022-10-16T00:06:10;7.40;;;3.92;;
24547;SDS011;12713;51.624;4.924;2022-10-16T00:08:36;8.07;;;3.97;;
24547;SDS011;12713;51.624;4.924;2022-10-16T00:11:06;9.10;;;4.28;;
24547;SDS011;12713;51.624;4.924;2022-10-16T00:13:33;8.55;;;4.13;;
24547;SDS011;12713;51.624;4.924;2022-10-16T00:16:00;6.50;;;4.00;;
24547;SDS011;12713;51.624;4.924;2022-10-16T00:18:26;9.82;;;4.10;;
24547;SDS011;12713;51.624;4.924;2022-10-16T00:20:52;7.10;;;4.18;;
24547;SDS011;12713;51.624;4.924;2022-10-16T00:23:19;6.88;;;4.40;;
24547;SDS011;12713;51.624;4.924;2022-10-16T00:25:45;6.07;;;3.97;;
24547;SDS011;12713;51.624;4.924;2022-10-16T00:28:19;7.88;;;4.57;;
24547;SDS011;12713;51.624;4.924;2022-10-16T00:30:45;6.55;;;4.78;;
24547;SDS011;12713;51.624;4.924;2022-10-16T00:33:11;7.40;;;4.80;;
24547;SDS011;12713;51.624;4.924;2022-10-16T00:35:37;5.88;;;4.07;;
24547;SDS011;12713;51.624;4.924;2022-10-16T00:38:03;6.93;;;4.00;;
24547;SDS011;12713;51.624;4.924;2022-10-16T00:40:29;6.22;;;3.60;;
24547;SDS011;12713;51.624;4.924;2022-10-16T00:42:56;6.43;;;3.33;;
24547;SDS011;12713;51.624;4.924;2022-10-16T00:45:22;6.72;;;3.70;;
24547;SDS011;12713;51.624;4.924;2022-10-16T00:47:48;5.60;;;3.90;;
24547;SDS011;12713;51.624;4.924;2022-10-16T00:50:18;5.05;;;3.50;;
24547;SDS011;12713;51.624;4.924;2022-10-16T00:52:46;14.40;;;3.75;;
24547;SDS011;12713;51.624;4.924;2022-10-16T00:55:13;8.30;;;3.75;;
24547;SDS011;12713;51.624;4.924;2022-10-16T00:57:39;9.20;;;3.40;;
24547;SDS011;12713;51.624;4.924;2022-10-16T01:00:06;7.60;;;3.30;;
24547;SDS011;12713;51.624;4.924;2022-10-16T01:02:33;8.45;;;3.60;;
24547;SDS011;12713;51.624;4.924;2022-10-16T01:04:59;5.07;;;2.97;;
24547;SDS011;12713;51.624;4.924;2022-10-16T01:10:03;8.77;;;3.00;;
24547;SDS011;12713;51.624;4.924;2022-10-16T01:12:46;7.72;;;3.42;;
24547;SDS011;12713;51.624;4.924;2022-10-16T01:17:51;6.25;;;3.15;;
24547;SDS011;12713;51.624;4.924;2022-10-16T01:23:04;4.82;;;2.78;;
24547;SDS011;12713;51.624;4.924;2022-10-16T01:28:00;8.95;;;2.85;;
24547;SDS011;12713;51.624;4.924;2022-10-16T01:30:29;6.35;;;2.47;;
24547;SDS011;12713;51.624;4.924;2022-10-16T01:33:01;6.32;;;3.22;;
24547;SDS011;12713;51.624;4.924;2022-10-16T01:35:38;3.33;;;2.22;;
24547;SDS011;12713;51.624;4.924;2022-10-16T01:38:12;5.78;;;2.72;;
24547;SDS011;12713;51.624;4.924;2022-10-16T01:40:41;2.95;;;2.58;;
24547;SDS011;12713;51.624;4.924;2022-10-16T01:43:12;3.42;;;2.50;;
24547;SDS011;12713;51.624;4.924;2022-10-16T01:45:39;5.18;;;2.40;;
24547;SDS011;12713;51.624;4.924;2022-10-16T01:48:07;5.60;;;2.90;;
24547;SDS011;12713;51.624;4.924;2022-10-16T01:50:35;4.03;;;2.67;;
24547;SDS011;12713;51.624;4.924;2022-10-16T01:53:02;4.35;;;2.95;;
24547;SDS011;12713;51.624;4.924;2022-10-16T01:55:30;5.97;;;2.70;;
24547;SDS011;12713;51.624;4.924;2022-10-16T01:57:58;5.40;;;3.05;;
24547;SDS011;12713;51.624;4.924;2022-10-16T02:00:25;5.07;;;2.25;;
24547;SDS011;12713;51.624;4.924;2022-10-16T02:02:53;3.97;;;2.35;;
24547;SDS011;12713;51.624;4.924;2022-10-16T02:07:47;4.97;;;2.80;;
24547;SDS011;12713;51.624;4.924;2022-10-16T02:10:13;2.83;;;2.30;;
24547;SDS011;12713;51.624;4.924;2022-10-16T02:12:40;3.65;;;2.28;;
24547;SDS011;12713;51.624;4.924;2022-10-16T02:15:08;5.05;;;2.58;;
24547;SDS011;12713;51.624;4.924;2022-10-16T02:17:34;5.22;;;2.10;;
24547;SDS011;12713;51.624;4.924;2022-10-16T02:20:00;3.17;;;2.38;;
24547;SDS011;12713;51.624;4.924;2022-10-16T02:22:28;3.28;;;2.42;;
24547;SDS011;12713;51.624;4.924;2022-10-16T02:24:59;5.22;;;2.20;;
24547;SDS011;12713;51.624;4.924;2022-10-16T02:27:30;4.43;;;2.50;;
24547;SDS011;12713;51.624;4.924;2022-10-16T02:30:01;4.47;;;2.33;;
24547;SDS011;12713;51.624;4.924;2022-10-16T02:32:32;3.60;;;2.35;;
24547;SDS011;12713;51.624;4.924;2022-10-16T02:34:59;5.22;;;1.98;;
24547;SDS011;12713;51.624;4.924;2022-10-16T02:37:25;4.78;;;2.53;;
24547;SDS011;12713;51.624;4.924;2022-10-16T02:39:52;3.30;;;2.17;;
24547;SDS011;12713;51.624;4.924;2022-10-16T02:42:19;6.47;;;2.67;;
24547;SDS011;12713;51.624;4.924;2022-10-16T02:44:45;4.22;;;2.08;;
24547;SDS011;12713;51.624;4.924;2022-10-16T02:47:11;3.35;;;2.80;;
24547;SDS011;12713;51.624;4.924;2022-10-16T02:49:37;4.05;;;2.45;;
24547;SDS011;12713;51.624;4.924;2022-10-16T02:52:03;2.92;;;2.20;;
24547;SDS011;12713;51.624;4.924;2022-10-16T02:54:29;3.47;;;2.25;;
24547;SDS011;12713;51.624;4.924;2022-10-16T02:56:55;6.32;;;2.80;;
24547;SDS011;12713;51.624;4.924;2022-10-16T02:59:21;4.82;;;2.33;;
24547;SDS011;12713;51.624;4.924;2022-10-16T03:01:47;5.72;;;2.90;;
24547;SDS011;12713;51.624;4.924;2022-10-16T03:04:14;3.30;;;1.90;;
24547;SDS011;12713;51.624;4.924;2022-10-16T03:06:40;9.00;;;2.53;;
24547;SDS011;12713;51.624;4.924;2022-10-16T03:09:06;4.28;;;2.38;;
24547;SDS011;12713;51.624;4.924;2022-10-16T03:11:32;4.05;;;2.13;;
24547;SDS011;12713;51.624;4.924;2022-10-16T03:13:58;8.77;;;2.13;;
24547;SDS011;12713;51.624;4.924;2022-10-16T03:16:25;4.28;;;1.90;;
24547;SDS011;12713;51.624;4.924;2022-10-16T03:18:51;5.03;;;2.20;;
24547;SDS011;12713;51.624;4.924;2022-10-16T03:21:16;2.78;;;2.00;;
24547;SDS011;12713;51.624;4.924;2022-10-16T03:23:42;10.07;;;2.35;;
24547;SDS011;12713;51.624;4.924;2022-10-16T03:26:08;3.67;;;1.98;;
24547;SDS011;12713;51.624;4.924;2022-10-16T03:28:34;2.53;;;2.10;;
24547;SDS011;12713;51.624;4.924;2022-10-16T03:31:00;6.20;;;2.33;;
24547;SDS011;12713;51.624;4.924;2022-10-16T03:33:27;5.47;;;2.33;;
24547;SDS011;12713;51.624;4.924;2022-10-16T03:35:53;7.53;;;2.30;;
24547;SDS011;12713;51.624;4.924;2022-10-16T03:38:20;5.00;;;2.28;;
24547;SDS011;12713;51.624;4.924;2022-10-16T03:40:46;4.50;;;2.00;;
24547;SDS011;12713;51.624;4.924;2022-10-16T03:43:12;5.57;;;2.47;;
24547;SDS011;12713;51.624;4.924;2022-10-16T03:45:38;5.10;;;1.90;;
24547;SDS011;12713;51.624;4.924;2022-10-16T03:48:04;3.40;;;2.08;;
24547;SDS011;12713;51.624;4.924;2022-10-16T03:50:31;5.05;;;2.60;;
24547;SDS011;12713;51.624;4.924;2022-10-16T03:52:57;3.95;;;2.33;;
24547;SDS011;12713;51.624;4.924;2022-10-16T03:55:22;4.05;;;2.40;;
24547;SDS011;12713;51.624;4.924;2022-10-16T03:57:48;3.97;;;2.30;;
24547;SDS011;12713;51.624;4.924;2022-10-16T04:00:14;4.13;;;2.33;;
24547;SDS011;12713;51.624;4.924;2022-10-16T04:02:40;5.15;;;2.35;;
24547;SDS011;12713;51.624;4.924;2022-10-16T04:05:07;6.07;;;2.25;;
24547;SDS011;12713;51.624;4.924;2022-10-16T04:07:33;3.72;;;2.38;;
24547;SDS011;12713;51.624;4.924;2022-10-16T04:09:59;3.42;;;2.38;;
24547;SDS011;12713;51.624;4.924;2022-10-16T04:12:25;4.90;;;2.30;;
24547;SDS011;12713;51.624;4.924;2022-10-16T04:14:51;3.05;;;2.22;;
24547;SDS011;12713;51.624;4.924;2022-10-16T04:17:18;5.65;;;2.65;;
24547;SDS011;12713;51.624;4.924;2022-10-16T04:19:44;6.40;;;2.28;;
24547;SDS011;12713;51.624;4.924;2022-10-16T04:22:10;4.43;;;3.10;;
24547;SDS011;12713;51.624;4.924;2022-10-16T04:24:36;4.53;;;2.45;;
24547;SDS011;12713;51.624;4.924;2022-10-16T04:27:02;4.00;;;2.38;;
24547;SDS011;12713;51.624;4.924;2022-10-16T04:29:28;2.38;;;2.17;;
24547;SDS011;12713;51.624;4.924;2022-10-16T04:31:54;7.07;;;2.63;;
24547;SDS011;12713;51.624;4.924;2022-10-16T04:34:20;3.58;;;2.30;;
24547;SDS011;12713;51.624;4.924;2022-10-16T04:36:47;6.63;;;2.58;;
24547;SDS011;12713;51.624;4.924;2022-10-16T04:39:14;5.10;;;2.30;;
24547;SDS011;12713;51.624;4.924;2022-10-16T04:41:40;3.92;;;2.65;;
24547;SDS011;12713;51.624;4.924;2022-10-16T04:44:06;5.97;;;2.70;;
24547;SDS011;12713;51.624;4.924;2022-10-16T04:46:32;6.93;;;2.80;;
24547;SDS011;12713;51.624;4.924;2022-10-16T04:48:58;4.38;;;2.70;;
24547;SDS011;12713;51.624;4.924;2022-10-16T04:51:24;3.60;;;2.30;;
24547;SDS011;12713;51.624;4.924;2022-10-16T04:53:51;10.35;;;2.65;;
24547;SDS011;12713;51.624;4.924;2022-10-16T04:56:17;4.95;;;2.50;;
24547;SDS011;12713;51.624;4.924;2022-10-16T04:58:43;8.65;;;3.10;;
24547;SDS011;12713;51.624;4.924;2022-10-16T05:01:09;4.13;;;2.40;;
24547;SDS011;12713;51.624;4.924;2022-10-16T05:03:35;3.25;;;2.47;;
24547;SDS011;12713;51.624;4.924;2022-10-16T05:06:01;4.85;;;3.10;;
24547;SDS011;12713;51.624;4.924;2022-10-16T05:08:29;4.95;;;2.78;;
24547;SDS011;12713;51.624;4.924;2022-10-16T05:10:55;4.97;;;2.55;;
24547;SDS011;12713;51.624;4.924;2022-10-16T05:13:21;5.20;;;2.75;;
24547;SDS011;12713;51.624;4.924;2022-10-16T05:15:48;4.80;;;2.60;;
24547;SDS011;12713;51.624;4.924;2022-10-16T05:18:14;5.13;;;2.90;;
24547;SDS011;12713;51.624;4.924;2022-10-16T05:20:41;5.85;;;2.83;;
24547;SDS011;12713;51.624;4.924;2022-10-16T05:23:07;8.25;;;2.90;;
24547;SDS011;12713;51.624;4.924;2022-10-16T05:25:35;5.10;;;3.03;;
24547;SDS011;12713;51.624;4.924;2022-10-16T05:28:01;5.20;;;3.08;;
24547;SDS011;12713;51.624;4.924;2022-10-16T05:30:27;6.13;;;2.97;;
24547;SDS011;12713;51.624;4.924;2022-10-16T05:32:53;4.88;;;3.03;;
24547;SDS011;12713;51.624;4.924;2022-10-16T05:35:19;9.60;;;3.10;;
24547;SDS011;12713;51.624;4.924;2022-10-16T05:37:46;7.18;;;2.88;;
24547;SDS011;12713;51.624;4.924;2022-10-16T05:40:13;6.65;;;3.20;;
24547;SDS011;12713;51.624;4.924;2022-10-16T05:42:39;5.30;;;3.08;;
24547;SDS011;12713;51.624;4.924;2022-10-16T05:45:05;5.00;;;2.80;;
24547;SDS011;12713;51.624;4.924;2022-10-16T05:47:32;6.55;;;3.25;;
24547;SDS011;12713;51.624;4.924;2022-10-16T05:49:58;7.18;;;3.33;;
24547;SDS011;12713;51.624;4.924;2022-10-16T05:52:24;7.93;;;3.47;;
24547;SDS011;12713;51.624;4.924;2022-10-16T05:54:50;8.35;;;4.07;;
24547;SDS011;12713;51.624;4.924;2022-10-16T05:57:16;5.65;;;3.60;;
24547;SDS011;12713;51.624;4.924;2022-10-16T05:59:42;7.43;;;3.30;;
24547;SDS011;12713;51.624;4.924;2022-10-16T06:02:11;4.95;;;3.25;;
24547;SDS011;12713;51.624;4.924;2022-10-16T06:04:37;4.78;;;3.10;;
24547;SDS011;12713;51.624;4.924;2022-10-16T06:07:03;7.05;;;3.15;;
24547;SDS011;12713;51.624;4.924;2022-10-16T06:09:29;5.65;;;3.03;;
24547;SDS011;12713;51.624;4.924;2022-10-16T06:11:55;4.60;;;2.85;;
24547;SDS011;12713;51.624;4.924;2022-10-16T06:14:21;5.20;;;2.92;;
24547;SDS011;12713;51.624;4.924;2022-10-16T06:16:47;6.10;;;3.15;;
24547;SDS011;12713;51.624;4.924;2022-10-16T06:19:13;5.07;;;2.90;;
24547;SDS011;12713;51.624;4.924;2022-10-16T06:21:41;5.93;;;3.58;;
24547;SDS011;12713;51.624;4.924;2022-10-16T06:24:07;7.93;;;3.35;;
24547;SDS011;12713;51.624;4.924;2022-10-16T06:26:33;10.60;;;3.50;;
24547;SDS011;12713;51.624;4.924;2022-10-16T06:28:59;6.70;;;3.42;;
24547;SDS011;12713;51.624;4.924;2022-10-16T06:31:26;6.45;;;3.28;;
24547;SDS011;12713;51.624;4.924;2022-10-16T06:33:54;7.25;;;3.25;;
24547;SDS011;12713;51.624;4.924;2022-10-16T06:36:21;6.45;;;3.33;;
24547;SDS011;12713;51.624;4.924;2022-10-16T06:38:47;5.00;;;3.30;;
24547;SDS011;12713;51.624;4.924;2022-10-16T06:41:17;7.65;;;3.72;;
24547;SDS011;12713;51.624;4.924;2022-10-16T06:43:44;6.65;;;3.80;;
24547;SDS011;12713;51.624;4.924;2022-10-16T06:46:10;8.60;;;6.28;;
24547;SDS011;12713;51.624;4.924;2022-10-16T06:48:37;8.65;;;4.32;;
24547;SDS011;12713;51.624;4.924;2022-10-16T06:53:30;7.82;;;4.05;;
24547;SDS011;12713;51.624;4.924;2022-10-16T06:55:56;4.95;;;3.65;;
24547;SDS011;12713;51.624;4.924;2022-10-16T06:58:22;14.73;;;5.10;;
24547;SDS011;12713;51.624;4.924;2022-10-16T07:00:54;5.38;;;3.92;;
24547;SDS011;12713;51.624;4.924;2022-10-16T07:03:21;5.72;;;3.78;;
24547;SDS011;12713;51.624;4.924;2022-10-16T07:05:47;5.85;;;3.92;;
24547;SDS011;12713;51.624;4.924;2022-10-16T07:08:13;4.90;;;3.42;;
24547;SDS011;12713;51.624;4.924;2022-10-16T07:10:39;6.45;;;3.45;;
24547;SDS011;12713;51.624;4.924;2022-10-16T07:13:05;7.88;;;4.10;;
24547;SDS011;12713;51.624;4.924;2022-10-16T07:15:32;5.82;;;3.42;;
24547;SDS011;12713;51.624;4.924;2022-10-16T07:17:58;6.25;;;3.60;;
24547;SDS011;12713;51.624;4.924;2022-10-16T07:20:25;5.93;;;3.63;;
24547;SDS011;12713;51.624;4.924;2022-10-16T07:22:51;6.60;;;3.58;;
24547;SDS011;12713;51.624;4.924;2022-10-16T07:25:17;5.60;;;3.78;;
24547;SDS011;12713;51.624;4.924;2022-10-16T07:27:43;8.65;;;3.85;;
24547;SDS011;12713;51.624;4.924;2022-10-16T07:30:09;7.20;;;3.55;;
24547;SDS011;12713;51.624;4.924;2022-10-16T07:32:35;7.13;;;3.30;;
24547;SDS011;12713;51.624;4.924;2022-10-16T07:35:01;5.20;;;3.03;;
24547;SDS011;12713;51.624;4.924;2022-10-16T07:37:27;5.72;;;3.20;;
24547;SDS011;12713;51.624;4.924;2022-10-16T07:39:53;8.30;;;3.42;;
24547;SDS011;12713;51.624;4.924;2022-10-16T07:42:19;6.38;;;3.08;;
24547;SDS011;12713;51.624;4.924;2022-10-16T07:44:45;6.35;;;3.10;;
24547;SDS011;12713;51.624;4.924;2022-10-16T07:47:11;7.25;;;3.47;;
24547;SDS011;12713;51.624;4.924;2022-10-16T07:49:37;9.13;;;3.25;;
24547;SDS011;12713;51.624;4.924;2022-10-16T07:52:03;5.80;;;3.38;;
24547;SDS011;12713;51.624;4.924;2022-10-16T07:54:29;7.28;;;3.08;;
24547;SDS011;12713;51.624;4.924;2022-10-16T07:56:55;10.15;;;3.10;;
24547;SDS011;12713;51.624;4.924;2022-10-16T07:59:21;8.88;;;3.17;;
24547;SDS011;12713;51.624;4.924;2022-10-16T08:01:48;7.05;;;3.00;;
24547;SDS011;12713;51.624;4.924;2022-10-16T08:04:14;5.07;;;2.75;;
24547;SDS011;12713;51.624;4.924;2022-10-16T08:06:40;7.93;;;2.90;;
24547;SDS011;12713;51.624;4.924;2022-10-16T08:09:07;10.07;;;3.10;;
24547;SDS011;12713;51.624;4.924;2022-10-16T08:11:33;8.73;;;3.15;;
24547;SDS011;12713;51.624;4.924;2022-10-16T08:13:59;4.97;;;2.63;;
24547;SDS011;12713;51.624;4.924;2022-10-16T08:16:25;6.80;;;3.47;;
24547;SDS011;12713;51.624;4.924;2022-10-16T08:18:51;4.85;;;2.80;;
24547;SDS011;12713;51.624;4.924;2022-10-16T08:21:18;8.60;;;2.60;;
24547;SDS011;12713;51.624;4.924;2022-10-16T08:23:45;7.25;;;2.45;;
24547;SDS011;12713;51.624;4.924;2022-10-16T08:26:12;5.22;;;2.55;;
24547;SDS011;12713;51.624;4.924;2022-10-16T08:28:38;4.70;;;2.50;;
24547;SDS011;12713;51.624;4.924;2022-10-16T08:31:05;4.32;;;2.30;;
24547;SDS011;12713;51.624;4.924;2022-10-16T08:33:31;8.38;;;3.08;;
24547;SDS011;12713;51.624;4.924;2022-10-16T08:35:59;6.68;;;3.05;;
24547;SDS011;12713;51.624;4.924;2022-10-16T08:38:25;4.53;;;2.50;;
24547;SDS011;12713;51.624;4.924;2022-10-16T08:40:51;7.10;;;2.60;;
24547;SDS011;12713;51.624;4.924;2022-10-16T08:48:24;10.85;;;2.65;;
24547;SDS011;12713;51.624;4.924;2022-10-16T08:50:52;7.90;;;2.17;;
24547;SDS011;12713;51.624;4.924;2022-10-16T08:53:24;7.05;;;2.42;;
24547;SDS011;12713;51.624;4.924;2022-10-16T08:55:52;10.38;;;2.67;;
24547;SDS011;12713;51.624;4.924;2022-10-16T08:58:23;8.00;;;2.60;;
24547;SDS011;12713;51.624;4.924;2022-10-16T09:00:53;5.95;;;2.75;;
24547;SDS011;12713;51.624;4.924;2022-10-16T09:08:36;6.88;;;2.38;;
24547;SDS011;12713;51.624;4.924;2022-10-16T09:14:07;14.30;;;2.75;;
24547;SDS011;12713;51.624;4.924;2022-10-16T09:16:39;7.95;;;2.17;;
24547;SDS011;12713;51.624;4.924;2022-10-16T09:21:44;5.88;;;2.00;;
24547;SDS011;12713;51.624;4.924;2022-10-16T09:24:14;7.50;;;2.08;;
24547;SDS011;12713;51.624;4.924;2022-10-16T09:26:41;4.80;;;2.20;;
24547;SDS011;12713;51.624;4.924;2022-10-16T09:29:10;4.20;;;1.83;;
24547;SDS011;12713;51.624;4.924;2022-10-16T09:31:37;10.93;;;2.97;;
24547;SDS011;12713;51.624;4.924;2022-10-16T09:34:05;8.85;;;2.65;;
24547;SDS011;12713;51.624;4.924;2022-10-16T09:36:39;8.07;;;2.53;;
24547;SDS011;12713;51.624;4.924;2022-10-16T09:39:15;8.30;;;1.98;;
24547;SDS011;12713;51.624;4.924;2022-10-16T09:41:42;10.65;;;2.50;;
24547;SDS011;12713;51.624;4.924;2022-10-16T09:44:28;7.68;;;2.08;;
24547;SDS011;12713;51.624;4.924;2022-10-16T09:49:56;8.85;;;2.40;;
24547;SDS011;12713;51.624;4.924;2022-10-16T09:52:23;4.88;;;1.90;;
24547;SDS011;12713;51.624;4.924;2022-10-16T09:54:51;12.40;;;2.63;;
24547;SDS011;12713;51.624;4.924;2022-10-16T09:57:20;9.45;;;2.30;;
24547;SDS011;12713;51.624;4.924;2022-10-16T09:59:56;11.68;;;2.67;;
24547;SDS011;12713;51.624;4.924;2022-10-16T10:02:29;11.52;;;1.98;;
24547;SDS011;12713;51.624;4.924;2022-10-16T10:04:56;12.18;;;2.58;;
24547;SDS011;12713;51.624;4.924;2022-10-16T10:07:24;8.68;;;2.25;;
24547;SDS011;12713;51.624;4.924;2022-10-16T10:09:53;10.88;;;2.60;;
24547;SDS011;12713;51.624;4.924;2022-10-16T10:12:21;9.18;;;2.33;;
24547;SDS011;12713;51.624;4.924;2022-10-16T10:15:07;10.32;;;2.30;;
24547;SDS011;12713;51.624;4.924;2022-10-16T10:17:45;12.43;;;2.40;;
24547;SDS011;12713;51.624;4.924;2022-10-16T10:20:33;8.43;;;2.33;;
24547;SDS011;12713;51.624;4.924;2022-10-16T10:22:59;10.57;;;2.35;;
24547;SDS011;12713;51.624;4.924;2022-10-16T10:31:39;11.32;;;1.88;;
24547;SDS011;12713;51.624;4.924;2022-10-16T10:36:46;15.40;;;2.15;;
24547;SDS011;12713;51.624;4.924;2022-10-16T10:39:25;14.23;;;2.60;;
24547;SDS011;12713;51.624;4.924;2022-10-16T10:55:03;11.40;;;2.72;;
24547;SDS011;12713;51.624;4.924;2022-10-16T11:00:21;14.50;;;3.47;;
24547;SDS011;12713;51.624;4.924;2022-10-16T11:02:58;14.18;;;2.83;;
24547;SDS011;12713;51.624;4.924;2022-10-16T11:08:11;12.40;;;3.45;;
24547;SDS011;12713;51.624;4.924;2022-10-16T11:10:44;12.93;;;2.72;;
24547;SDS011;12713;51.624;4.924;2022-10-16T11:15:44;15.35;;;2.83;;
24547;SDS011;12713;51.624;4.924;2022-10-16T11:18:20;7.53;;;2.00;;
24547;SDS011;12713;51.624;4.924;2022-10-16T11:20:49;18.88;;;2.97;;
24547;SDS011;12713;51.624;4.924;2022-10-16T11:25:45;13.70;;;2.83;;
24547;SDS011;12713;51.624;4.924;2022-10-16T11:28:14;11.82;;;2.22;;
24547;SDS011;12713;51.624;4.924;2022-10-16T11:30:49;12.38;;;3.55;;
24547;SDS011;12713;51.624;4.924;2022-10-16T11:35:51;12.52;;;2.70;;
24547;SDS011;12713;51.624;4.924;2022-10-16T11:40:45;12.00;;;2.90;;
24547;SDS011;12713;51.624;4.924;2022-10-16T11:43:15;12.43;;;3.20;;
24547;SDS011;12713;51.624;4.924;2022-10-16T11:45:43;12.43;;;2.67;;
24547;SDS011;12713;51.624;4.924;2022-10-16T11:56:03;9.95;;;2.83;;
24547;SDS011;12713;51.624;4.924;2022-10-16T11:58:31;11.43;;;2.38;;
24547;SDS011;12713;51.624;4.924;2022-10-16T12:03:36;11.98;;;2.42;;
24547;SDS011;12713;51.624;4.924;2022-10-16T12:09:03;13.80;;;2.63;;
24547;SDS011;12713;51.624;4.924;2022-10-16T12:14:06;10.65;;;2.47;;
24547;SDS011;12713;51.624;4.924;2022-10-16T12:16:32;13.68;;;2.67;;
24547;SDS011;12713;51.624;4.924;2022-10-16T12:19:17;9.00;;;2.28;;
24547;SDS011;12713;51.624;4.924;2022-10-16T12:22:02;12.07;;;2.60;;
24547;SDS011;12713;51.624;4.924;2022-10-16T12:24:31;13.23;;;2.50;;
24547;SDS011;12713;51.624;4.924;2022-10-16T12:27:01;7.65;;;2.10;;
24547;SDS011;12713;51.624;4.924;2022-10-16T12:29:34;11.02;;;2.55;;
24547;SDS011;12713;51.624;4.924;2022-10-16T12:32:02;10.00;;;2.33;;
24547;SDS011;12713;51.624;4.924;2022-10-16T12:37:07;10.43;;;2.42;;
24547;SDS011;12713;51.624;4.924;2022-10-16T12:39:34;15.25;;;3.33;;
24547;SDS011;12713;51.624;4.924;2022-10-16T12:42:06;10.65;;;2.40;;
24547;SDS011;12713;51.624;4.924;2022-10-16T12:44:44;14.68;;;2.83;;
24547;SDS011;12713;51.624;4.924;2022-10-16T12:47:21;13.05;;;2.88;;
24547;SDS011;12713;51.624;4.924;2022-10-16T12:49:53;16.00;;;2.70;;
24547;SDS011;12713;51.624;4.924;2022-10-16T12:52:53;10.80;;;2.60;;
24547;SDS011;12713;51.624;4.924;2022-10-16T12:55:16;10.18;;;2.67;;
24547;SDS011;12713;51.624;4.924;2022-10-16T12:58:03;12.63;;;2.38;;
24547;SDS011;12713;51.624;4.924;2022-10-16T13:00:35;10.30;;;2.33;;
24547;SDS011;12713;51.624;4.924;2022-10-16T13:05:51;12.63;;;2.72;;
24547;SDS011;12713;51.624;4.924;2022-10-16T13:11:07;7.65;;;2.25;;
24547;SDS011;12713;51.624;4.924;2022-10-16T13:18:41;18.20;;;2.90;;
24547;SDS011;12713;51.624;4.924;2022-10-16T13:26:57;14.48;;;3.08;;
24547;SDS011;12713;51.624;4.924;2022-10-16T13:29:15;11.03;;;1.90;;
24547;SDS011;12713;51.624;4.924;2022-10-16T13:31:41;14.00;;;2.33;;
24547;SDS011;12713;51.624;4.924;2022-10-16T13:34:16;10.25;;;2.30;;
24547;SDS011;12713;51.624;4.924;2022-10-16T13:36:44;11.35;;;2.17;;
24547;SDS011;12713;51.624;4.924;2022-10-16T13:39:15;16.23;;;2.83;;
24547;SDS011;12713;51.624;4.924;2022-10-16T13:41:42;18.75;;;3.13;;
24547;SDS011;12713;51.624;4.924;2022-10-16T13:44:16;12.13;;;2.65;;
24547;SDS011;12713;51.624;4.924;2022-10-16T13:46:43;10.25;;;2.97;;
24547;SDS011;12713;51.624;4.924;2022-10-16T13:49:14;8.27;;;2.20;;
24547;SDS011;12713;51.624;4.924;2022-10-16T13:51:40;10.43;;;2.22;;
24547;SDS011;12713;51.624;4.924;2022-10-16T13:54:10;12.10;;;2.42;;
24547;SDS011;12713;51.624;4.924;2022-10-16T13:56:38;10.52;;;2.30;;
24547;SDS011;12713;51.624;4.924;2022-10-16T13:59:05;8.82;;;2.20;;
24547;SDS011;12713;51.624;4.924;2022-10-16T14:01:35;8.38;;;2.20;;
24547;SDS011;12713;51.624;4.924;2022-10-16T14:04:06;12.88;;;2.72;;
24547;SDS011;12713;51.624;4.924;2022-10-16T14:06:33;11.25;;;2.30;;
24547;SDS011;12713;51.624;4.924;2022-10-16T14:09:01;12.88;;;2.70;;
24547;SDS011;12713;51.624;4.924;2022-10-16T14:11:27;11.57;;;2.78;;
24547;SDS011;12713;51.624;4.924;2022-10-16T14:13:54;10.90;;;2.63;;
24547;SDS011;12713;51.624;4.924;2022-10-16T14:16:21;8.20;;;1.85;;
24547;SDS011;12713;51.624;4.924;2022-10-16T14:18:58;7.85;;;2.30;;
24547;SDS011;12713;51.624;4.924;2022-10-16T14:21:24;10.45;;;2.33;;
24547;SDS011;12713;51.624;4.924;2022-10-16T14:23:51;8.70;;;2.20;;
24547;SDS011;12713;51.624;4.924;2022-10-16T14:26:19;7.22;;;2.22;;
24547;SDS011;12713;51.624;4.924;2022-10-16T14:28:46;10.20;;;2.03;;
24547;SDS011;12713;51.624;4.924;2022-10-16T14:33:44;7.27;;;2.50;;
24547;SDS011;12713;51.624;4.924;2022-10-16T14:36:14;12.30;;;3.08;;
24547;SDS011;12713;51.624;4.924;2022-10-16T14:38:48;7.45;;;2.22;;
24547;SDS011;12713;51.624;4.924;2022-10-16T14:41:15;8.88;;;2.42;;
24547;SDS011;12713;51.624;4.924;2022-10-16T14:43:43;6.70;;;2.00;;
24547;SDS011;12713;51.624;4.924;2022-10-16T14:46:13;7.60;;;1.50;;
24547;SDS011;12713;51.624;4.924;2022-10-16T14:48:41;8.45;;;2.45;;
24547;SDS011;12713;51.624;4.924;2022-10-16T14:51:08;9.13;;;2.00;;
24547;SDS011;12713;51.624;4.924;2022-10-16T14:53:38;6.55;;;2.30;;
24547;SDS011;12713;51.624;4.924;2022-10-16T14:56:08;7.60;;;2.90;;
24547;SDS011;12713;51.624;4.924;2022-10-16T14:58:35;13.52;;;7.07;;
24547;SDS011;12713;51.624;4.924;2022-10-16T15:01:01;25.35;;;17.58;;
24547;SDS011;12713;51.624;4.924;2022-10-16T15:03:27;24.42;;;17.52;;
24547;SDS011;12713;51.624;4.924;2022-10-16T15:05:53;16.58;;;11.70;;
24547;SDS011;12713;51.624;4.924;2022-10-16T15:08:19;19.15;;;9.15;;
24547;SDS011;12713;51.624;4.924;2022-10-16T15:10:45;12.73;;;6.03;;
24547;SDS011;12713;51.624;4.924;2022-10-16T15:13:14;12.02;;;5.28;;
24547;SDS011;12713;51.624;4.924;2022-10-16T15:15:44;9.82;;;5.00;;
24547;SDS011;12713;51.624;4.924;2022-10-16T15:18:10;10.93;;;3.30;;
24547;SDS011;12713;51.624;4.924;2022-10-16T15:20:38;7.45;;;2.75;;
24547;SDS011;12713;51.624;4.924;2022-10-16T15:23:15;7.63;;;2.17;;
24547;SDS011;12713;51.624;4.924;2022-10-16T15:25:48;6.60;;;3.22;;
24547;SDS011;12713;51.624;4.924;2022-10-16T15:28:15;10.55;;;4.80;;
24547;SDS011;12713;51.624;4.924;2022-10-16T15:30:42;7.72;;;3.35;;
24547;SDS011;12713;51.624;4.924;2022-10-16T15:33:14;9.23;;;2.72;;
24547;SDS011;12713;51.624;4.924;2022-10-16T15:35:40;8.40;;;3.35;;
24547;SDS011;12713;51.624;4.924;2022-10-16T15:38:09;8.98;;;4.20;;
24547;SDS011;12713;51.624;4.924;2022-10-16T15:40:37;11.65;;;3.97;;
24547;SDS011;12713;51.624;4.924;2022-10-16T15:43:03;5.30;;;2.80;;
24547;SDS011;12713;51.624;4.924;2022-10-16T15:45:29;7.50;;;3.00;;
24547;SDS011;12713;51.624;4.924;2022-10-16T15:47:55;6.13;;;2.88;;
24547;SDS011;12713;51.624;4.924;2022-10-16T15:50:21;9.85;;;2.75;;
24547;SDS011;12713;51.624;4.924;2022-10-16T15:52:47;14.60;;;3.03;;
24547;SDS011;12713;51.624;4.924;2022-10-16T15:55:13;11.48;;;2.80;;
24547;SDS011;12713;51.624;4.924;2022-10-16T15:57:39;4.82;;;2.13;;
24547;SDS011;12713;51.624;4.924;2022-10-16T16:00:09;5.00;;;2.38;;
24547;SDS011;12713;51.624;4.924;2022-10-16T16:02:35;7.78;;;2.33;;
24547;SDS011;12713;51.624;4.924;2022-10-16T16:05:01;6.32;;;2.17;;
24547;SDS011;12713;51.624;4.924;2022-10-16T16:07:28;8.18;;;1.67;;
24547;SDS011;12713;51.624;4.924;2022-10-16T16:09:54;8.50;;;2.17;;
24547;SDS011;12713;51.624;4.924;2022-10-16T16:12:20;5.40;;;1.90;;
24547;SDS011;12713;51.624;4.924;2022-10-16T16:14:47;7.82;;;2.13;;
24547;SDS011;12713;51.624;4.924;2022-10-16T16:17:14;7.65;;;1.88;;
24547;SDS011;12713;51.624;4.924;2022-10-16T16:19:40;6.45;;;2.25;;
24547;SDS011;12713;51.624;4.924;2022-10-16T16:22:06;12.27;;;2.50;;
24547;SDS011;12713;51.624;4.924;2022-10-16T16:24:32;6.82;;;2.42;;
24547;SDS011;12713;51.624;4.924;2022-10-16T16:26:58;4.80;;;2.13;;
24547;SDS011;12713;51.624;4.924;2022-10-16T16:29:24;9.68;;;2.83;;
24547;SDS011;12713;51.624;4.924;2022-10-16T16:31:50;9.65;;;2.65;;
24547;SDS011;12713;51.624;4.924;2022-10-16T16:34:22;7.63;;;2.40;;
24547;SDS011;12713;51.624;4.924;2022-10-16T16:36:48;13.55;;;3.00;;